Time;durP1;ratioP1;P1;durP2;ratioP2;P2;SDS_P1;SDS_P2;PMS_P1;PMS_P2;Temp;Humidity;BMP_temperature;BMP_pressure;BME280_temperature;BME280_humidity;BME280_pressure;Samples;Min_cycle;Max_cycle;Signal;HPM_P1;HPM_P2
2021/10/26 00:02:09;;;;;;;19.73;12.73;;;6.50;99.90;;;;;;5065528;28;20211;-88
2021/10/26 00:04:37;;;;;;;16.38;12.90;;;6.20;99.90;;;;;;5065472;28;20203;-87
2021/10/26 00:07:04;;;;;;;17.58;13.02;;;6.50;99.90;;;;;;5064422;28;20219;-87
2021/10/26 00:09:31;;;;;;;15.70;13.20;;;6.50;99.90;;;;;;5068285;28;20230;-85
2021/10/26 00:11:58;;;;;;;16.38;13.05;;;6.10;99.90;;;;;;5064905;28;20210;-85
2021/10/26 00:14:25;;;;;;;22.55;13.80;;;5.40;99.90;;;;;;5076282;28;20295;-85
2021/10/26 00:16:52;;;;;;;17.73;13.75;;;;;;;;;;5076770;28;20258;-85
2021/10/26 00:19:19;;;;;;;14.27;11.50;;;6.40;99.90;;;;;;5076022;28;20229;-87
2021/10/26 00:21:46;;;;;;;16.85;13.27;;;6.40;99.90;;;;;;5073548;28;20218;-87
2021/10/26 00:24:12;;;;;;;17.35;14.25;;;6.30;99.90;;;;;;5074893;28;20222;-87
2021/10/26 00:26:40;;;;;;;17.88;13.20;;;6.30;99.90;;;;;;5077623;28;20216;-86
2021/10/26 00:29:07;;;;;;;17.17;12.35;;;6.30;99.90;;;;;;5078888;28;20191;-87
2021/10/26 00:31:34;;;;;;;19.83;13.02;;;6.80;99.90;;;;;;5079600;28;20262;-85
2021/10/26 00:34:01;;;;;;;15.88;12.73;;;;;;;;;;5079910;28;20188;-84
2021/10/26 00:36:28;;;;;;;16.02;13.75;;;6.20;99.90;;;;;;5064135;28;20220;-85
2021/10/26 00:38:55;;;;;;;17.65;13.45;;;6.50;99.90;;;;;;5064976;28;20230;-85
2021/10/26 00:41:22;;;;;;;16.75;13.15;;;;;;;;;;5068857;28;20220;-87
2021/10/26 00:43:50;;;;;;;15.23;12.82;;;6.70;99.90;;;;;;5067378;28;20203;-87
2021/10/26 00:46:28;;;;;;;18.05;12.32;;;6.70;99.90;;;;;;5069791;28;20297;-87
2021/10/26 00:48:54;;;;;;;15.93;12.52;;;6.20;99.90;;;;;;5068982;28;20200;-86
2021/10/26 00:51:22;;;;;;;20.85;13.23;;;5.60;99.90;;;;;;5069647;28;20212;-87
2021/10/26 00:53:48;;;;;;;16.67;12.68;;;6.00;99.90;;;;;;5067536;28;20267;-87
2021/10/26 00:56:15;;;;;;;17.25;12.93;;;6.40;99.90;;;;;;5066858;28;20227;-87
2021/10/26 00:58:42;;;;;;;17.42;11.30;;;6.20;99.90;;;;;;5067547;28;20208;-87
2021/10/26 01:01:10;;;;;;;15.95;12.68;;;6.20;99.90;;;;;;5068634;28;20203;-86
2021/10/26 01:03:36;;;;;;;17.70;11.57;;;6.00;99.90;;;;;;5074941;28;20203;-86
2021/10/26 01:06:03;;;;;;;14.38;12.32;;;6.80;99.90;;;;;;5068046;28;20223;-86
2021/10/26 01:08:31;;;;;;;16.10;11.50;;;6.80;99.90;;;;;;5067667;28;20200;-88
2021/10/26 01:10:58;;;;;;;23.08;12.05;;;6.80;99.90;;;;;;5064336;28;20207;-87
2021/10/26 01:13:25;;;;;;;17.58;11.98;;;7.10;99.90;;;;;;5072006;28;20223;-86
2021/10/26 01:15:54;;;;;;;13.95;11.88;;;6.90;99.90;;;;;;5072058;28;20223;-89
2021/10/26 01:18:22;;;;;;;13.38;11.85;;;6.30;99.90;;;;;;5069377;28;20227;-86
2021/10/26 01:20:50;;;;;;;13.80;10.95;;;6.80;99.90;;;;;;5068651;28;20207;-87
2021/10/26 01:23:16;;;;;;;17.23;12.27;;;6.30;99.90;;;;;;5066398;28;20260;-87
2021/10/26 01:25:43;;;;;;;14.63;11.00;;;;;;;;;;5064305;28;20199;-86
2021/10/26 01:28:10;;;;;;;16.52;12.38;;;7.00;99.90;;;;;;5062578;28;20188;-87
2021/10/26 01:30:37;;;;;;;13.60;11.45;;;5.90;99.90;;;;;;5062482;28;20619;-86
2021/10/26 01:33:05;;;;;;;20.02;12.48;;;6.30;99.90;;;;;;5063015;28;20210;-88
2021/10/26 01:35:32;;;;;;;14.82;11.88;;;;;;;;;;5063793;28;20242;-88
2021/10/26 01:38:01;;;;;;;12.68;9.90;;;7.00;99.90;;;;;;5063216;28;20223;-86
2021/10/26 01:40:28;;;;;;;15.00;11.50;;;6.40;99.90;;;;;;5063350;28;20199;-87
2021/10/26 01:42:55;;;;;;;15.00;10.75;;;7.70;99.90;;;;;;5066042;28;20204;-86
2021/10/26 01:45:21;;;;;;;13.88;11.02;;;6.40;99.90;;;;;;5067804;28;20199;-87
2021/10/26 01:47:48;;;;;;;13.60;11.15;;;;;;;;;;5077656;28;20228;-85
2021/10/26 01:50:17;;;;;;;12.98;9.45;;;6.90;99.90;;;;;;5078532;28;20204;-86
2021/10/26 01:52:45;;;;;;;15.57;11.50;;;6.90;99.90;;;;;;5077741;28;20626;-85
2021/10/26 01:55:14;;;;;;;13.15;11.32;;;7.00;99.90;;;;;;5078565;28;20203;-87
2021/10/26 01:57:40;;;;;;;12.30;10.45;;;7.20;99.90;;;;;;5077972;28;20211;-87
2021/10/26 02:00:09;;;;;;;14.20;10.90;;;6.40;99.90;;;;;;5073453;28;20198;-86
2021/10/26 02:02:36;;;;;;;15.25;10.80;;;7.00;99.90;;;;;;5074279;28;20203;-87
2021/10/26 02:05:03;;;;;;;16.83;11.20;;;6.20;99.90;;;;;;5072363;28;20207;-87
2021/10/26 02:07:30;;;;;;;15.82;11.80;;;7.00;99.90;;;;;;5067928;28;20223;-85
2021/10/26 02:09:57;;;;;;;14.15;11.40;;;6.80;99.90;;;;;;5063244;28;20655;-86
2021/10/26 02:12:25;;;;;;;14.25;11.32;;;6.50;99.90;;;;;;5061762;28;20210;-87
2021/10/26 02:14:52;;;;;;;18.92;11.70;;;6.80;99.90;;;;;;5060658;28;20203;-87
2021/10/26 02:17:18;;;;;;;23.67;11.55;;;5.80;99.90;;;;;;5064978;28;20222;-86
2021/10/26 02:19:45;;;;;;;14.23;11.10;;;6.50;99.90;;;;;;5064449;28;20249;-86
2021/10/26 02:22:11;;;;;;;15.98;11.68;;;7.10;99.90;;;;;;5072797;28;20190;-86
2021/10/26 02:24:38;;;;;;;15.05;11.15;;;;;;;;;;5072692;28;20203;-86
2021/10/26 02:27:06;;;;;;;15.13;10.80;;;;;;;;;;5067804;28;20260;-87
2021/10/26 02:29:34;;;;;;;17.30;11.70;;;6.60;99.90;;;;;;5063026;28;20211;-88
2021/10/26 02:32:00;;;;;;;15.57;11.43;;;6.80;99.90;;;;;;5063287;28;20226;-88
2021/10/26 02:34:27;;;;;;;12.80;10.95;;;6.60;99.90;;;;;;5062250;28;20203;-87
2021/10/26 02:36:53;;;;;;;17.58;11.90;;;6.00;99.90;;;;;;5060145;28;20432;-86
2021/10/26 02:39:20;;;;;;;21.52;11.23;;;6.70;99.90;;;;;;5061650;28;20238;-88
2021/10/26 02:41:47;;;;;;;13.52;10.55;;;6.60;99.90;;;;;;5064497;28;20650;-87
2021/10/26 02:44:14;;;;;;;18.67;12.20;;;6.80;99.90;;;;;;5063623;28;20203;-88
2021/10/26 02:46:41;;;;;;;17.45;11.38;;;6.00;99.90;;;;;;5063292;28;20224;-87
2021/10/26 02:49:09;;;;;;;17.85;11.77;;;6.70;99.90;;;;;;5064250;28;20211;-87
2021/10/26 02:51:35;;;;;;;16.67;12.65;;;7.00;99.90;;;;;;5060867;28;20447;-85
2021/10/26 02:54:02;;;;;;;14.48;11.10;;;6.80;99.90;;;;;;5066870;28;20643;-87
2021/10/26 02:56:29;;;;;;;18.67;12.50;;;6.60;99.90;;;;;;5064652;28;20227;-86
2021/10/26 02:58:55;;;;;;;15.13;11.00;;;6.80;99.90;;;;;;5063063;28;20235;-88
2021/10/26 03:01:22;;;;;;;14.85;12.10;;;5.70;99.90;;;;;;5063747;28;20203;-87
2021/10/26 03:03:51;;;;;;;15.95;10.98;;;8.90;99.90;;;;;;5073569;28;20203;-87
2021/10/26 03:06:19;;;;;;;15.18;11.43;;;;;;;;;;5059261;28;20223;-86
2021/10/26 03:08:45;;;;;;;14.95;11.82;;;6.50;99.90;;;;;;5060654;28;20204;-87
2021/10/26 03:11:12;;;;;;;13.65;10.63;;;6.10;99.90;;;;;;5062462;28;20208;-87
2021/10/26 03:13:38;;;;;;;16.65;11.20;;;6.50;99.90;;;;;;5065923;28;20281;-86
2021/10/26 03:16:06;;;;;;;16.73;11.70;;;5.90;99.90;;;;;;5066483;28;20234;-87
2021/10/26 03:18:32;;;;;;;14.63;10.88;;;6.60;99.90;;;;;;5065680;28;20254;-87
2021/10/26 03:21:00;;;;;;;16.08;11.60;;;6.20;99.90;;;;;;5065805;28;20234;-87
2021/10/26 03:23:28;;;;;;;12.23;10.40;;;7.20;99.90;;;;;;5065497;28;20200;-88
2021/10/26 03:25:55;;;;;;;12.73;11.00;;;6.10;99.90;;;;;;5066395;28;20250;-87
2021/10/26 03:28:21;;;;;;;12.27;10.95;;;6.20;99.90;;;;;;5066240;28;20196;-87
2021/10/26 03:30:48;;;;;;;12.88;11.32;;;6.40;99.90;;;;;;5066346;28;20203;-87
2021/10/26 03:33:15;;;;;;;16.02;11.43;;;6.60;99.90;;;;;;5065734;28;20210;-88
2021/10/26 03:35:42;;;;;;;13.45;10.73;;;;;;;;;;5065009;28;20203;-86
2021/10/26 03:38:10;;;;;;;15.35;10.95;;;6.70;99.90;;;;;;5075936;28;20234;-83
2021/10/26 03:40:38;;;;;;;12.07;10.73;;;6.10;99.90;;;;;;5080712;28;20214;-87
2021/10/26 03:43:05;;;;;;;14.07;11.20;;;6.80;99.90;;;;;;5080922;28;20207;-86
2021/10/26 03:45:32;;;;;;;14.80;11.23;;;;;;;;;;5067672;28;20199;-84
2021/10/26 03:47:59;;;;;;;12.25;10.63;;;6.80;99.90;;;;;;5076006;28;20194;-85
2021/10/26 03:50:25;;;;;;;11.07;9.98;;;6.60;99.90;;;;;;5080844;28;20204;-84
2021/10/26 03:52:52;;;;;;;15.32;10.57;;;5.90;99.90;;;;;;5074297;28;20223;-87
2021/10/26 03:55:21;;;;;;;13.73;10.55;;;6.80;99.90;;;;;;5069331;28;20490;-86
2021/10/26 03:57:48;;;;;;;13.90;12.40;;;6.80;99.90;;;;;;5062372;28;20451;-84
2021/10/26 04:00:15;;;;;;;14.63;12.15;;;6.80;99.90;;;;;;5069069;28;20200;-86
2021/10/26 04:02:42;;;;;;;14.73;11.95;;;6.80;99.90;;;;;;5061074;28;20215;-85
2021/10/26 04:05:17;;;;;;;14.80;11.18;;;6.90;99.90;;;;;;5059276;28;20229;-86
2021/10/26 04:07:50;;;;;;;12.13;10.75;;;6.90;99.90;;;;;;5058835;28;20717;-87
2021/10/26 04:10:19;;;;;;;12.77;10.27;;;7.00;99.90;;;;;;5058758;28;20440;-85
2021/10/26 04:12:47;;;;;;;13.43;10.52;;;6.90;99.90;;;;;;5058817;28;20214;-87
2021/10/26 04:15:14;;;;;;;11.27;10.05;;;6.90;99.90;;;;;;5058087;28;20203;-87
2021/10/26 04:17:41;;;;;;;15.10;10.25;;;7.00;99.90;;;;;;5058885;28;20227;-84
2021/10/26 04:20:09;;;;;;;12.10;9.88;;;7.00;99.90;;;;;;5060869;28;20207;-86
2021/10/26 04:22:36;;;;;;;14.10;11.43;;;7.00;99.90;;;;;;5059848;28;20239;-86
2021/10/26 04:25:02;;;;;;;14.35;11.45;;;7.10;99.90;;;;;;5059926;28;20294;-85
2021/10/26 04:27:29;;;;;;;11.95;10.75;;;7.20;99.90;;;;;;5081623;22;20232;-80
2021/10/26 04:29:57;;;;;;;73.70;16.15;;;7.20;99.90;;;;;;5061165;28;20211;-80
2021/10/26 04:32:24;;;;;;;22.10;10.57;;;7.20;99.90;;;;;;5063053;28;20225;-79
2021/10/26 04:34:50;;;;;;;11.68;10.48;;;7.20;99.90;;;;;;5060888;28;20628;-79
2021/10/26 04:37:17;;;;;;;14.02;10.45;;;7.20;99.90;;;;;;5062793;28;20596;-79
2021/10/26 04:39:44;;;;;;;15.18;10.98;;;7.20;99.90;;;;;;5064211;28;20223;-79
2021/10/26 04:42:11;;;;;;;13.05;11.27;;;7.20;99.90;;;;;;5064894;28;20254;-79
2021/10/26 04:44:38;;;;;;;12.40;11.10;;;7.20;99.90;;;;;;5064317;28;20254;-80
2021/10/26 04:47:06;;;;;;;12.75;11.38;;;7.00;99.90;;;;;;5064398;28;20226;-79
2021/10/26 04:49:34;;;;;;;13.32;10.40;;;7.30;99.90;;;;;;5063284;28;20196;-79
2021/10/26 04:52:02;;;;;;;13.98;10.43;;;7.30;99.90;;;;;;5063283;28;20215;-79
2021/10/26 04:54:29;;;;;;;13.88;11.00;;;7.40;99.90;;;;;;5064276;28;20290;-80
2021/10/26 04:56:55;;;;;;;13.38;11.40;;;7.40;99.90;;;;;;5063792;28;20227;-80
2021/10/26 04:59:22;;;;;;;13.00;10.20;;;7.70;99.90;;;;;;5062100;28;20231;-78
2021/10/26 05:01:48;;;;;;;20.60;10.93;;;7.50;99.90;;;;;;5059672;28;20257;-78
2021/10/26 05:04:19;;;;;;;16.15;12.85;;;7.60;99.90;;;;;;5063213;28;20203;-80
2021/10/26 05:06:46;;;;;;;17.63;12.65;;;7.50;99.90;;;;;;5062292;28;20234;-77
2021/10/26 05:09:13;;;;;;;13.02;11.40;;;7.70;99.90;;;;;;5064104;28;20215;-77
2021/10/26 05:11:39;;;;;;;13.02;9.80;;;7.60;99.90;;;;;;5070629;28;20203;-78
2021/10/26 05:14:06;;;;;;;19.33;14.25;;;7.80;99.90;;;;;;5070040;28;20203;-78
2021/10/26 05:16:33;;;;;;;14.57;11.40;;;7.60;99.90;;;;;;5070347;28;20227;-78
2021/10/26 05:19:02;;;;;;;13.63;11.77;;;7.60;99.90;;;;;;5064751;28;20306;-79
2021/10/26 05:21:33;;;;;;;15.55;11.50;;;7.70;99.90;;;;;;5064423;28;20454;-79
2021/10/26 05:23:59;;;;;;;15.07;10.38;;;7.60;99.90;;;;;;5064177;28;20202;-78
2021/10/26 05:26:26;;;;;;;13.80;11.45;;;8.00;99.90;;;;;;5064981;28;20261;-78
2021/10/26 05:28:53;;;;;;;16.00;12.10;;;7.70;99.90;;;;;;5063371;28;20181;-79
2021/10/26 05:31:20;;;;;;;17.37;14.37;;;7.80;99.90;;;;;;5061972;28;20208;-78
2021/10/26 05:33:47;;;;;;;15.40;13.13;;;7.80;99.90;;;;;;5061921;28;20500;-79
2021/10/26 05:36:14;;;;;;;16.98;12.20;;;7.90;99.90;;;;;;5063513;28;20231;-79
2021/10/26 05:38:43;;;;;;;22.13;12.75;;;7.90;99.90;;;;;;5061652;28;20223;-80
2021/10/26 05:41:10;;;;;;;18.48;11.15;;;8.00;99.90;;;;;;5060003;28;20227;-79
2021/10/26 05:43:37;;;;;;;14.18;10.63;;;7.90;99.90;;;;;;5062470;28;20230;-80
2021/10/26 05:46:04;;;;;;;18.77;11.23;;;7.60;99.90;;;;;;5063404;28;20207;-80
2021/10/26 05:48:32;;;;;;;18.73;11.40;;;8.20;99.90;;;;;;5061065;28;20449;-79
2021/10/26 05:51:01;;;;;;;15.88;12.90;;;8.70;99.90;;;;;;5061762;28;20454;-80
2021/10/26 05:53:27;;;;;;;16.70;13.23;;;7.90;99.90;;;;;;5060604;28;20203;-78
2021/10/26 05:55:55;;;;;;;17.77;12.52;;;7.80;99.90;;;;;;5063018;28;20442;-79
2021/10/26 05:58:22;;;;;;;16.20;11.90;;;8.00;99.90;;;;;;5062943;28;20245;-79
2021/10/26 06:00:49;;;;;;;14.40;11.23;;;7.90;99.90;;;;;;5066825;28;20508;-79
2021/10/26 06:03:15;;;;;;;16.05;12.10;;;8.00;99.90;;;;;;5067434;28;20449;-78
2021/10/26 06:05:42;;;;;;;17.00;11.20;;;7.90;99.90;;;;;;5070043;28;20204;-78
2021/10/26 06:08:08;;;;;;;21.08;11.50;;;8.00;99.90;;;;;;5067045;28;20440;-78
2021/10/26 06:10:40;;;;;;;15.00;11.68;;;8.00;99.90;;;;;;5072658;28;20207;-78
2021/10/26 06:13:10;;;;;;;17.07;11.17;;;8.00;99.90;;;;;;5066679;28;20187;-79
2021/10/26 06:15:37;;;;;;;14.10;11.33;;;8.20;99.90;;;;;;5063650;28;20520;-79
2021/10/26 06:18:04;;;;;;;21.60;14.18;;;8.00;99.90;;;;;;5062134;28;20492;-79
2021/10/26 06:20:30;;;;;;;16.97;11.43;;;8.10;99.90;;;;;;5062148;28;20622;-79
2021/10/26 06:22:57;;;;;;;14.87;11.20;;;8.10;99.90;;;;;;5062733;28;20477;-79
2021/10/26 06:25:23;;;;;;;18.13;11.63;;;8.10;99.90;;;;;;5061766;28;20453;-80
2021/10/26 06:27:50;;;;;;;16.83;12.20;;;8.20;99.90;;;;;;5061170;28;20856;-79
2021/10/26 06:30:18;;;;;;;16.13;11.70;;;;;;;;;;5060523;28;20485;-78
2021/10/26 06:32:45;;;;;;;14.97;10.60;;;8.20;99.90;;;;;;5058528;28;20451;-79
2021/10/26 06:35:13;;;;;;;12.60;11.30;;;8.10;99.90;;;;;;5058251;28;20417;-79
2021/10/26 06:37:42;;;;;;;17.47;11.30;;;8.20;99.90;;;;;;5059961;28;20817;-78
2021/10/26 06:40:10;;;;;;;19.70;12.67;;;8.20;99.90;;;;;;5055968;28;20481;-78
2021/10/26 06:42:36;;;;;;;14.97;11.77;;;8.20;99.90;;;;;;5059106;28;20455;-79
2021/10/26 06:45:06;;;;;;;15.07;12.40;;;8.20;99.90;;;;;;5061615;28;20499;-79
2021/10/26 06:47:34;;;;;;;16.10;13.10;;;8.30;99.90;;;;;;5062780;28;20469;-78
2021/10/26 06:50:01;;;;;;;16.00;12.20;;;8.40;99.90;;;;;;5063676;28;20457;-79
2021/10/26 06:52:28;;;;;;;15.17;13.60;;;8.20;99.90;;;;;;5066796;28;20522;-79
2021/10/26 06:54:56;;;;;;;20.23;13.20;;;8.40;99.90;;;;;;5065215;28;20454;-79
2021/10/26 06:57:24;;;;;;;17.03;12.27;;;8.40;99.90;;;;;;5065533;28;20492;-79
2021/10/26 06:59:51;;;;;;;18.70;12.37;;;8.70;99.90;;;;;;5065227;28;20478;-80
2021/10/26 07:02:18;;;;;;;17.20;12.60;;;8.60;99.90;;;;;;5063214;28;20457;-79
2021/10/26 07:04:48;;;;;;;14.77;11.13;;;8.60;99.90;;;;;;5064797;28;20469;-78
2021/10/26 07:07:14;;;;;;;14.37;12.63;;;8.60;99.90;;;;;;5068378;28;20539;-79
2021/10/26 07:09:41;;;;;;;13.90;11.50;;;8.70;99.90;;;;;;5063634;28;20450;-79
2021/10/26 07:12:08;;;;;;;24.50;12.43;;;8.70;99.90;;;;;;5067991;28;20421;-81
2021/10/26 07:14:34;;;;;;;15.73;11.50;;;8.80;99.90;;;;;;5066990;28;20531;-79
2021/10/26 07:17:01;;;;;;;18.70;12.83;;;8.80;99.90;;;;;;5067174;28;20487;-80
2021/10/26 07:19:28;;;;;;;19.80;12.80;;;8.90;99.90;;;;;;5065874;28;20546;-79
2021/10/26 07:21:56;;;;;;;20.03;13.23;;;9.00;99.90;;;;;;5064897;28;20449;-78
2021/10/26 07:24:22;;;;;;;14.20;12.07;;;9.50;99.90;;;;;;5066279;28;20450;-79
2021/10/26 07:26:49;;;;;;;16.00;11.43;;;9.20;99.90;;;;;;5065016;28;20481;-79
2021/10/26 07:29:17;;;;;;;15.30;13.63;;;9.40;99.90;;;;;;5067074;28;20450;-79
2021/10/26 07:31:44;;;;;;;22.93;12.60;;;9.30;99.90;;;;;;5072402;28;20424;-79
2021/10/26 07:34:12;;;;;;;17.00;12.63;;;9.30;99.90;;;;;;5073645;28;20489;-81
2021/10/26 07:36:42;;;;;;;14.40;12.10;;;9.30;99.90;;;;;;5071085;28;20521;-79
2021/10/26 07:39:29;;;;;;;21.10;16.60;;;9.40;99.90;;;;;;5075164;28;20454;-78
2021/10/26 07:42:00;;;;;;;16.77;12.23;;;9.40;99.90;;;;;;5079256;28;20452;-78
2021/10/26 07:44:28;;;;;;;18.43;12.70;;;9.40;99.90;;;;;;5078682;28;20401;-79
2021/10/26 07:46:59;;;;;;;18.60;13.57;;;9.50;99.90;;;;;;5077983;28;20493;-79
2021/10/26 07:49:26;;;;;;;18.13;12.80;;;9.50;99.90;;;;;;5073086;28;20442;-80
2021/10/26 07:51:53;;;;;;;18.10;12.30;;;9.60;99.90;;;;;;5067849;28;20446;-79
2021/10/26 07:54:20;;;;;;;20.50;15.97;;;9.60;99.90;;;;;;5065647;28;20432;-78
2021/10/26 07:56:47;;;;;;;19.67;13.60;;;9.70;99.90;;;;;;5066265;28;20470;-80
2021/10/26 07:59:14;;;;;;;13.13;11.70;;;9.70;99.90;;;;;;5065257;28;20462;-79
2021/10/26 08:01:44;;;;;;;18.90;14.07;;;9.50;99.90;;;;;;5066453;28;20446;-79
2021/10/26 08:04:11;;;;;;;15.57;12.53;;;9.80;99.90;;;;;;5067458;28;20881;-79
2021/10/26 08:06:40;;;;;;;16.00;11.37;;;9.80;99.90;;;;;;5066542;28;20527;-79
2021/10/26 08:09:07;;;;;;;19.83;13.80;;;9.90;99.90;;;;;;5065854;28;20453;-79
2021/10/26 08:11:35;;;;;;;19.17;14.13;;;10.00;99.90;;;;;;5065942;28;20450;-79
2021/10/26 08:14:02;;;;;;;16.20;12.20;;;10.10;99.90;;;;;;5064945;28;20499;-79
2021/10/26 08:16:29;;;;;;;17.70;12.53;;;10.10;99.90;;;;;;5065724;28;20474;-79
2021/10/26 08:18:55;;;;;;;13.70;12.23;;;10.20;99.90;;;;;;5066606;28;20463;-79
2021/10/26 08:21:22;;;;;;;14.73;12.00;;;10.30;99.90;;;;;;5065477;28;20461;-79
2021/10/26 08:23:50;;;;;;;19.03;12.10;;;10.50;99.90;;;;;;5066649;28;20948;-79
2021/10/26 08:26:20;;;;;;;17.47;12.77;;;10.40;99.90;;;;;;5066522;28;20482;-79
2021/10/26 08:28:53;;;;;;;18.30;11.70;;;10.40;99.90;;;;;;5066308;28;20425;-79
2021/10/26 08:31:23;;;;;;;16.10;11.10;;;10.50;99.90;;;;;;5066342;28;20422;-78
2021/10/26 08:34:10;;;;;;;18.57;13.00;;;10.60;99.90;;;;;;5071919;28;20429;-79
2021/10/26 08:36:37;;;;;;;21.40;13.87;;;10.70;99.90;;;;;;5065553;28;20870;-80
2021/10/26 08:39:05;;;;;;;17.40;13.50;;;10.80;99.90;;;;;;5066794;28;20528;-79
2021/10/26 08:41:34;;;;;;;16.10;12.90;;;10.70;99.90;;;;;;5070581;28;20582;-78
2021/10/26 08:44:02;;;;;;;18.90;14.10;;;10.80;99.90;;;;;;5070930;28;20449;-78
2021/10/26 08:46:28;;;;;;;15.90;12.53;;;11.00;99.90;;;;;;5068041;28;20493;-79
2021/10/26 08:48:55;;;;;;;18.23;13.87;;;10.80;99.90;;;;;;5072418;28;20472;-80
2021/10/26 08:51:24;;;;;;;21.03;12.23;;;10.90;99.90;;;;;;5077458;28;20434;-79
2021/10/26 08:53:53;;;;;;;24.63;13.27;;;10.90;99.90;;;;;;5069226;28;20450;-80
2021/10/26 08:56:21;;;;;;;18.60;12.43;;;11.00;99.90;;;;;;5064205;28;20495;-79
2021/10/26 08:58:48;;;;;;;25.93;13.67;;;10.90;99.90;;;;;;5063314;28;20883;-79
2021/10/26 09:01:16;;;;;;;17.80;12.93;;;11.00;99.90;;;;;;5065294;28;20450;-79
2021/10/26 09:03:43;;;;;;;18.57;13.20;;;11.00;99.90;;;;;;5064579;28;20442;-79
2021/10/26 09:06:10;;;;;;;23.63;14.20;;;11.00;99.90;;;;;;5064537;28;20481;-79
2021/10/26 09:08:39;;;;;;;22.53;14.60;;;11.00;99.90;;;;;;5062967;28;20446;-78
2021/10/26 09:11:18;;;;;;;19.63;13.30;;;11.00;99.90;;;;;;5062487;28;20477;-79
2021/10/26 09:16:42;;;;;;;22.50;15.70;;;11.00;99.90;;;;;;5065512;28;20482;-79
2021/10/26 09:19:10;;;;;;;18.50;13.43;;;11.00;99.90;;;;;;5067877;28;20502;-78
2021/10/26 09:21:40;;;;;;;18.87;13.83;;;11.00;99.90;;;;;;5070027;28;20568;-79
2021/10/26 09:24:09;;;;;;;21.67;14.30;;;11.10;99.90;;;;;;5068139;28;20445;-78
2021/10/26 09:27:00;;;;;;;17.63;13.80;;;11.20;99.90;;;;;;5069248;28;20498;-79
2021/10/26 09:29:41;;;;;;;23.30;15.67;;;11.20;99.90;;;;;;5065326;28;20446;-79
2021/10/26 09:32:12;;;;;;;18.90;14.77;;;11.30;99.90;;;;;;5064513;28;20422;-79
2021/10/26 09:34:44;;;;;;;20.47;14.43;;;11.40;99.90;;;;;;5065293;28;20426;-79
2021/10/26 09:37:12;;;;;;;17.37;14.03;;;11.40;99.90;;;;;;5062417;28;21050;-79
2021/10/26 09:39:38;;;;;;;20.80;15.13;;;11.60;99.90;;;;;;5064218;28;20470;-79
2021/10/26 09:42:08;;;;;;;15.30;13.30;;;11.60;99.90;;;;;;5063142;28;20495;-80
2021/10/26 09:44:38;;;;;;;16.97;14.30;;;11.60;99.90;;;;;;5063862;28;20450;-79
2021/10/26 09:47:07;;;;;;;27.07;13.10;;;11.70;99.90;;;;;;5064012;28;20453;-80
2021/10/26 09:49:38;;;;;;;19.07;13.80;;;11.60;99.90;;;;;;5063078;28;20739;-79
2021/10/26 09:52:13;;;;;;;18.67;14.50;;;11.70;99.90;;;;;;5062948;28;20485;-79
2021/10/26 09:54:41;;;;;;;16.87;12.70;;;11.80;99.90;;;;;;5064351;28;20465;-80
2021/10/26 09:57:11;;;;;;;17.93;14.87;;;12.00;99.90;;;;;;5064156;28;20444;-80
2021/10/26 09:59:46;;;;;;;20.23;14.27;;;12.10;99.90;;;;;;5065089;28;20549;-80
2021/10/26 10:02:17;;;;;;;19.23;13.83;;;11.90;99.90;;;;;;5067876;28;20492;-79
2021/10/26 10:04:45;;;;;;;15.27;11.50;;;12.20;99.90;;;;;;5067909;28;20454;-79
2021/10/26 10:07:11;;;;;;;17.27;13.07;;;12.20;99.90;;;;;;5066469;28;20549;-78
2021/10/26 10:09:38;;;;;;;16.27;12.80;;;;;;;;;;5069006;28;20450;-79
2021/10/26 10:12:08;;;;;;;15.30;11.90;;;12.40;99.90;;;;;;5067703;28;20458;-78
2021/10/26 10:14:36;;;;;;;15.70;11.20;;;12.40;99.90;;;;;;5065388;28;20450;-80
2021/10/26 10:17:06;;;;;;;17.47;11.70;;;12.30;99.90;;;;;;5065991;28;20465;-79
2021/10/26 10:19:35;;;;;;;14.57;12.10;;;12.60;99.90;;;;;;5066390;28;20859;-79
2021/10/26 10:22:06;;;;;;;14.67;11.10;;;12.40;99.90;;;;;;5068118;28;20445;-79
2021/10/26 10:24:38;;;;;;;11.53;9.43;;;12.50;99.90;;;;;;5067574;28;20510;-79
2021/10/26 10:27:05;;;;;;;13.80;10.47;;;12.40;99.90;;;;;;5091326;22;20482;-87
2021/10/26 10:29:34;;;;;;;16.30;11.73;;;12.70;99.90;;;;;;5073786;28;20448;-84
2021/10/26 10:32:02;;;;;;;13.20;9.77;;;12.80;99.90;;;;;;5076326;28;20446;-85
2021/10/26 10:34:30;;;;;;;12.93;10.30;;;13.20;99.90;;;;;;5071928;28;20445;-86
2021/10/26 10:37:00;;;;;;;14.80;11.80;;;16.40;99.90;;;;;;5067783;28;20452;-86
2021/10/26 10:39:33;;;;;;;13.40;10.70;;;12.90;99.90;;;;;;5067666;28;20504;-85
2021/10/26 10:42:12;;;;;;;15.23;10.10;;;13.00;99.90;;;;;;5069007;28;20561;-85
2021/10/26 10:44:40;;;;;;;13.87;10.00;;;13.10;99.90;;;;;;5068206;28;20449;-85
2021/10/26 10:47:39;;;;;;;18.63;11.27;;;13.00;99.90;;;;;;5066718;28;20488;-87
2021/10/26 10:50:25;;;;;;;17.60;9.90;;;13.10;99.90;;;;;;5067758;28;20462;-87
2021/10/26 10:53:18;;;;;;;9.80;8.00;;;13.00;99.90;;;;;;5066796;28;20448;-87
2021/10/26 10:55:53;;;;;;;16.60;9.77;;;13.00;99.90;;;;;;5069368;28;20433;-88
2021/10/26 10:58:30;;;;;;;11.53;8.80;;;13.00;99.90;;;;;;5073028;28;20537;-85
2021/10/26 11:01:23;;;;;;;11.60;8.40;;;13.10;99.90;;;;;;5077422;28;20488;-85
2021/10/26 11:03:53;;;;;;;15.50;10.43;;;13.10;99.90;;;;;;5077559;28;20515;-87
2021/10/26 11:06:48;;;;;;;14.00;10.27;;;13.70;99.90;;;;;;5077514;28;20472;-87
2021/10/26 11:09:39;;;;;;;18.20;10.70;;;13.10;99.90;;;;;;5069749;28;20430;-88
2021/10/26 11:12:17;;;;;;;12.00;10.00;;;13.20;99.90;;;;;;5066700;28;20445;-88
2021/10/26 11:14:54;;;;;;;12.40;9.70;;;13.20;99.90;;;;;;5067427;28;20434;-87
2021/10/26 11:17:59;;;;;;;11.53;9.13;;;13.10;99.90;;;;;;5070722;28;21028;-85
2021/10/26 11:20:58;;;;;;;12.93;9.10;;;13.60;99.90;;;;;;5063924;28;20469;-87
2021/10/26 11:23:47;;;;;;;15.57;9.53;;;;;;;;;;5057349;28;20450;-86
2021/10/26 11:26:28;;;;;;;13.00;10.37;;;13.40;99.90;;;;;;5059555;28;20476;-85
2021/10/26 11:28:59;;;;;;;13.17;9.00;;;13.40;99.90;;;;;;5059071;28;20542;-87
2021/10/26 11:31:44;;;;;;;10.57;9.40;;;13.40;99.90;;;;;;5060712;28;20431;-87
2021/10/26 11:34:23;;;;;;;13.30;10.07;;;13.50;99.90;;;;;;5063684;28;20466;-86
2021/10/26 11:37:07;;;;;;;16.00;11.60;;;13.60;99.90;;;;;;5065184;28;20465;-86
2021/10/26 11:39:42;;;;;;;12.53;9.90;;;13.60;99.90;;;;;;5065588;28;20468;-88
2021/10/26 11:42:17;;;;;;;14.70;10.00;;;;;;;;;;5064985;28;20931;-86
2021/10/26 11:44:46;;;;;;;11.63;9.40;;;;;;;;;;5066810;28;20441;-86
2021/10/26 11:47:15;;;;;;;12.87;9.90;;;13.70;99.90;;;;;;5067412;28;20536;-86
2021/10/26 11:49:43;;;;;;;12.70;9.10;;;;;;;;;;5070792;28;20416;-86
2021/10/26 11:52:10;;;;;;;12.57;9.63;;;;;;;;;;5069579;28;20454;-87
2021/10/26 11:54:39;;;;;;;14.47;10.13;;;13.70;99.90;;;;;;5070017;28;20991;-85
2021/10/26 11:57:07;;;;;;;14.80;10.40;;;13.60;99.90;;;;;;5074973;28;20453;-88
2021/10/26 11:59:37;;;;;;;14.83;10.53;;;12.30;99.90;;;;;;5072545;28;20940;-87
2021/10/26 12:02:14;;;;;;;15.77;10.47;;;13.00;99.90;;;;;;5072517;28;20442;-87
2021/10/26 12:04:48;;;;;;;15.13;10.50;;;13.70;99.90;;;;;;5074684;28;20422;-87
2021/10/26 12:07:17;;;;;;;14.53;11.77;;;13.60;99.90;;;;;;5078532;28;20480;-86
2021/10/26 12:09:47;;;;;;;13.50;9.93;;;13.80;99.90;;;;;;5077207;28;20921;-86
2021/10/26 12:12:17;;;;;;;17.80;11.40;;;13.70;99.90;;;;;;5076018;28;20450;-86
2021/10/26 12:14:46;;;;;;;14.90;11.20;;;13.70;99.90;;;;;;5077891;28;20429;-87
2021/10/26 12:17:26;;;;;;;15.03;10.87;;;12.90;99.90;;;;;;5078598;28;20457;-86
2021/10/26 12:20:00;;;;;;;11.60;10.20;;;12.90;99.90;;;;;;5078007;28;20430;-88
2021/10/26 12:22:33;;;;;;;13.63;11.10;;;12.30;99.90;;;;;;5078655;28;20449;-88
2021/10/26 12:25:10;;;;;;;12.70;9.37;;;13.50;99.90;;;;;;5078665;28;20434;-87
2021/10/26 12:27:39;;;;;;;15.80;10.83;;;13.10;99.90;;;;;;5077498;28;20461;-87
2021/10/26 12:30:21;;;;;;;11.30;9.07;;;13.60;99.90;;;;;;5075863;28;20439;-86
2021/10/26 12:33:00;;;;;;;18.40;12.00;;;13.70;99.90;;;;;;5074969;28;20440;-87
2021/10/26 12:35:32;;;;;;;17.63;11.83;;;13.60;99.90;;;;;;5073867;28;20419;-87
2021/10/26 12:38:10;;;;;;;15.03;10.00;;;13.50;99.90;;;;;;5070638;28;20465;-88
2021/10/26 12:40:52;;;;;;;13.70;9.50;;;13.60;99.90;;;;;;5070220;28;20771;-87
2021/10/26 12:43:23;;;;;;;12.53;9.60;;;13.50;99.90;;;;;;5068689;28;20450;-86
2021/10/26 12:45:51;;;;;;;13.10;9.37;;;;;;;;;;5071872;28;20445;-88
2021/10/26 12:48:33;;;;;;;17.90;10.33;;;13.40;99.90;;;;;;5068850;28;20476;-87
2021/10/26 12:51:02;;;;;;;15.67;10.53;;;;;;;;;;5073950;28;20427;-86
2021/10/26 12:53:37;;;;;;;12.17;8.47;;;;;;;;;;5071744;28;20541;-86
2021/10/26 12:56:19;;;;;;;12.07;9.60;;;13.60;99.90;;;;;;5071276;28;20889;-86